createdAt,value
2022-10-28T00:00:03.977Z,98888.00
2022-10-28T00:00:13.980Z,98886.00
2022-10-28T00:00:23.967Z,98886.00
2022-10-28T00:00:33.992Z,98886.00
2022-10-28T00:00:42.537Z,98888.00
2022-10-28T00:00:52.527Z,98888.00
2022-10-28T00:01:03.992Z,98886.00
2022-10-28T00:01:14.100Z,98890.00
2022-10-28T00:01:22.575Z,98885.00
2022-10-28T00:01:32.630Z,98886.00
2022-10-28T00:01:42.664Z,98885.00
2022-10-28T00:01:52.630Z,98886.00
2022-10-28T00:02:04.045Z,98886.00
2022-10-28T00:02:13.992Z,98888.00
2022-10-28T00:02:22.635Z,98888.00
2022-10-28T00:02:33.514Z,98886.00
2022-10-28T00:02:44.077Z,98886.00
2022-10-28T00:02:52.825Z,98888.00
2022-10-28T00:03:04.106Z,98886.00
2022-10-28T00:03:13.959Z,98890.00
2022-10-28T00:03:23.968Z,98888.00
2022-10-28T00:03:32.517Z,98888.00
2022-10-28T00:03:43.965Z,98888.00
2022-10-28T00:03:52.542Z,98888.00
2022-10-28T00:04:03.968Z,98890.00
2022-10-28T00:04:12.509Z,98888.00
2022-10-28T00:04:24.006Z,98886.00
2022-10-28T00:04:33.953Z,98886.00
2022-10-28T00:04:42.500Z,98886.00
2022-10-28T00:04:53.969Z,98888.00
2022-10-28T00:05:03.949Z,98890.00
2022-10-28T00:05:13.931Z,98890.00
2022-10-28T00:05:22.718Z,98888.00
2022-10-28T00:05:32.514Z,98890.00
2022-10-28T00:05:43.420Z,98890.00
2022-10-28T00:05:53.961Z,98888.00
2022-10-28T00:06:03.966Z,98890.00
2022-10-28T00:06:12.482Z,98890.00
2022-10-28T00:06:23.362Z,98890.00
2022-10-28T00:06:32.498Z,98890.00
2022-10-28T00:06:43.465Z,98888.00
2022-10-28T00:06:52.500Z,98890.00
2022-10-28T00:07:03.289Z,98890.00
2022-10-28T00:07:13.430Z,98890.00
2022-10-28T00:07:22.830Z,98894.00
2022-10-28T00:07:33.909Z,98892.00
2022-10-28T00:07:42.513Z,98892.00
2022-10-28T00:07:54.274Z,98894.00
2022-10-28T00:08:02.469Z,98892.00
2022-10-28T00:08:13.929Z,98892.00
2022-10-28T00:08:23.930Z,98892.00
2022-10-28T00:08:32.719Z,98896.00
2022-10-28T00:08:43.899Z,98894.00
2022-10-28T00:08:52.460Z,98894.00
2022-10-28T00:09:05.550Z,98896.00
2022-10-28T00:09:13.461Z,98894.00
2022-10-28T00:09:22.955Z,98896.00
2022-10-28T00:09:32.880Z,98896.00
2022-10-28T00:09:43.903Z,98898.00
2022-10-28T00:09:52.460Z,98896.00
2022-10-28T00:10:03.935Z,98898.00
2022-10-28T00:10:12.913Z,98896.00
2022-10-28T00:10:22.450Z,98898.00
2022-10-28T00:10:32.981Z,98900.00
2022-10-28T00:10:43.033Z,98894.00
2022-10-28T00:10:52.543Z,98900.00
2022-10-28T00:11:02.580Z,98898.00
2022-10-28T00:11:12.819Z,98900.00
2022-10-28T00:11:22.432Z,98898.00
2022-10-28T00:11:33.000Z,98900.00
2022-10-28T00:11:43.903Z,98894.00
2022-10-28T00:11:53.061Z,98898.00
2022-10-28T00:12:03.015Z,98896.00
2022-10-28T00:12:12.461Z,98896.00
2022-10-28T00:12:23.073Z,98900.00
2022-10-28T00:12:33.109Z,98896.00
2022-10-28T00:12:42.521Z,98900.00
2022-10-28T00:12:53.092Z,98900.00
2022-10-28T00:13:03.129Z,98900.00
2022-10-28T00:13:13.437Z,98896.00
2022-10-28T00:13:22.468Z,98898.00
2022-10-28T00:13:33.115Z,98896.00
2022-10-28T00:13:43.159Z,98898.00
2022-10-28T00:13:52.872Z,98898.00
2022-10-28T00:14:03.121Z,98898.00
2022-10-28T00:14:12.457Z,98900.00
2022-10-28T00:14:22.664Z,98900.00
2022-10-28T00:14:33.123Z,98900.00
2022-10-28T00:14:43.323Z,98898.00
2022-10-28T00:14:53.092Z,98900.00
2022-10-28T00:15:03.221Z,98900.00
2022-10-28T00:15:13.863Z,98900.00
2022-10-28T00:15:23.090Z,98896.00
2022-10-28T00:15:33.862Z,98898.00
2022-10-28T00:15:43.903Z,98898.00
2022-10-28T00:15:52.444Z,98898.00
2022-10-28T00:16:02.448Z,98898.00
2022-10-28T00:16:12.492Z,98896.00
2022-10-28T00:16:22.452Z,98898.00
2022-10-28T00:16:32.414Z,98896.00
2022-10-28T00:16:43.356Z,98898.00
2022-10-28T00:16:53.864Z,98896.00
2022-10-28T00:17:03.414Z,98898.00
2022-10-28T00:17:12.461Z,98894.00
2022-10-28T00:17:33.866Z,98896.00
2022-10-28T00:17:43.885Z,98896.00
2022-10-28T00:17:53.492Z,98894.00
2022-10-28T00:18:02.541Z,98896.00
2022-10-28T00:18:12.471Z,98892.00
2022-10-28T00:18:23.881Z,98894.00
2022-10-28T00:18:33.877Z,98890.00
2022-10-28T00:18:43.891Z,98890.00
2022-10-28T00:18:53.905Z,98890.00
2022-10-28T00:19:03.899Z,98890.00
2022-10-28T00:19:13.394Z,98892.00
2022-10-28T00:19:22.436Z,98890.00
2022-10-28T00:19:32.453Z,98890.00
2022-10-28T00:19:42.384Z,98888.00
2022-10-28T00:19:53.866Z,98888.00
2022-10-28T00:20:03.843Z,98892.00
2022-10-28T00:20:13.845Z,98892.00
2022-10-28T00:20:23.834Z,98892.00
2022-10-28T00:20:33.834Z,98890.00
2022-10-28T00:20:43.834Z,98892.00
2022-10-28T00:20:53.835Z,98892.00
2022-10-28T00:21:03.844Z,98890.00
2022-10-28T00:21:13.409Z,98892.00
2022-10-28T00:21:22.430Z,98890.00
2022-10-28T00:21:33.845Z,98890.00
2022-10-28T00:21:43.856Z,98892.00
2022-10-28T00:21:53.834Z,98890.00
2022-10-28T00:22:02.416Z,98892.00
2022-10-28T00:22:13.824Z,98890.00
2022-10-28T00:22:23.835Z,98892.00
2022-10-28T00:22:33.819Z,98892.00
2022-10-28T00:22:43.340Z,98894.00
2022-10-28T00:22:53.836Z,98892.00
2022-10-28T00:23:02.394Z,98892.00
2022-10-28T00:23:12.373Z,98888.00
2022-10-28T00:23:23.825Z,98892.00
2022-10-28T00:23:33.814Z,98890.00
2022-10-28T00:23:43.861Z,98888.00
2022-10-28T00:23:52.403Z,98892.00
2022-10-28T00:24:03.810Z,98892.00
2022-10-28T00:24:13.805Z,98890.00
2022-10-28T00:24:23.808Z,98892.00
2022-10-28T00:24:33.849Z,98894.00
2022-10-28T00:24:43.807Z,98894.00
2022-10-28T00:24:53.805Z,98892.00
2022-10-28T00:25:03.815Z,98894.00
2022-10-28T00:25:13.817Z,98890.00
2022-10-28T00:25:23.805Z,98892.00
2022-10-28T00:25:32.357Z,98890.00
2022-10-28T00:25:43.826Z,98890.00
2022-10-28T00:25:53.806Z,98890.00
2022-10-28T00:26:02.365Z,98890.00
2022-10-28T00:26:12.396Z,98888.00
2022-10-28T00:26:23.815Z,98890.00
2022-10-28T00:26:33.790Z,98890.00
2022-10-28T00:26:43.809Z,98890.00
2022-10-28T00:26:53.286Z,98890.00
2022-10-28T00:27:03.840Z,98890.00
2022-10-28T00:27:12.412Z,98888.00
2022-10-28T00:27:22.394Z,98890.00
2022-10-28T00:27:33.793Z,98885.00
2022-10-28T00:27:43.816Z,98888.00
2022-10-28T00:27:52.846Z,98888.00
2022-10-28T00:28:03.335Z,98888.00
2022-10-28T00:28:13.775Z,98888.00
2022-10-28T00:28:22.334Z,98886.00
2022-10-28T00:28:32.316Z,98892.00
2022-10-28T00:28:42.388Z,98894.00
2022-10-28T00:28:52.349Z,98890.00
2022-10-28T00:29:02.350Z,98886.00
2022-10-28T00:29:12.490Z,98886.00
2022-10-28T00:29:22.481Z,98886.00
2022-10-28T00:29:32.453Z,98888.00
2022-10-28T00:29:43.801Z,98888.00
2022-10-28T00:29:53.794Z,98885.00
2022-10-28T00:30:02.399Z,98888.00
2022-10-28T00:30:13.798Z,98888.00
2022-10-28T00:30:22.391Z,98886.00
2022-10-28T00:30:32.378Z,98886.00
2022-10-28T00:30:43.330Z,98886.00
2022-10-28T00:30:53.800Z,98886.00
2022-10-28T00:31:02.346Z,98886.00
2022-10-28T00:31:12.343Z,98885.00
2022-10-28T00:31:22.525Z,98886.00
2022-10-28T00:31:33.767Z,98886.00
2022-10-28T00:31:42.347Z,98886.00
2022-10-28T00:31:53.774Z,98886.00
2022-10-28T00:32:03.329Z,98886.00
2022-10-28T00:32:12.315Z,98886.00
2022-10-28T00:32:22.317Z,98888.00
2022-10-28T00:32:33.779Z,98885.00
2022-10-28T00:32:43.129Z,98883.00
2022-10-28T00:32:53.958Z,98888.00
2022-10-28T00:33:03.777Z,98886.00
2022-10-28T00:33:12.312Z,98883.00
2022-10-28T00:33:22.315Z,98888.00
2022-10-28T00:33:33.747Z,98886.00
2022-10-28T00:33:42.333Z,98888.00
2022-10-28T00:33:52.308Z,98888.00
2022-10-28T00:34:03.249Z,98886.00
2022-10-28T00:34:12.298Z,98888.00
2022-10-28T00:34:22.315Z,98888.00
2022-10-28T00:34:33.749Z,98890.00
2022-10-28T00:34:42.288Z,98886.00
2022-10-28T00:34:52.319Z,98888.00
2022-10-28T00:35:02.298Z,98888.00
2022-10-28T00:35:13.770Z,98890.00
2022-10-28T00:35:23.131Z,98890.00
2022-10-28T00:35:33.737Z,98892.00
2022-10-28T00:35:43.739Z,98892.00
2022-10-28T00:35:52.278Z,98890.00
2022-10-28T00:36:04.298Z,98894.00
2022-10-28T00:36:13.731Z,98894.00
2022-10-28T00:36:23.729Z,98890.00
2022-10-28T00:36:32.287Z,98894.00
2022-10-28T00:36:43.249Z,98894.00
2022-10-28T00:36:53.744Z,98894.00
2022-10-28T00:37:03.744Z,98896.00
2022-10-28T00:37:13.738Z,98894.00
2022-10-28T00:37:23.195Z,98896.00
2022-10-28T00:37:32.282Z,98896.00
2022-10-28T00:37:43.734Z,98896.00
2022-10-28T00:37:53.737Z,98896.00
2022-10-28T00:38:02.300Z,98896.00
2022-10-28T00:38:13.110Z,98898.00
2022-10-28T00:38:22.340Z,98896.00
2022-10-28T00:38:32.305Z,98900.00
2022-10-28T00:38:42.339Z,98894.00
2022-10-28T00:38:53.048Z,98900.00
2022-10-28T00:39:02.359Z,98900.00
2022-10-28T00:39:12.332Z,98898.00
2022-10-28T00:39:23.742Z,98894.00
2022-10-28T00:39:32.360Z,98898.00
2022-10-28T00:39:43.740Z,98896.00
2022-10-28T00:39:53.701Z,98900.00
2022-10-28T00:40:02.260Z,98894.00
2022-10-28T00:40:13.711Z,98902.00
2022-10-28T00:40:22.456Z,98896.00
2022-10-28T00:40:32.370Z,98894.00
2022-10-28T00:40:42.239Z,98898.00
2022-10-28T00:40:52.270Z,98898.00
2022-10-28T00:41:02.471Z,98898.00
2022-10-28T00:41:13.691Z,98896.00
2022-10-28T00:41:22.442Z,98896.00
2022-10-28T00:41:32.487Z,98896.00
2022-10-28T00:41:43.681Z,98896.00
2022-10-28T00:41:52.240Z,98894.00
2022-10-28T00:42:02.268Z,98896.00
2022-10-28T00:42:12.520Z,98896.00
2022-10-28T00:42:22.212Z,98896.00
2022-10-28T00:42:33.684Z,98896.00
2022-10-28T00:42:43.191Z,98898.00
2022-10-28T00:42:52.433Z,98896.00
2022-10-28T00:43:02.513Z,98896.00
2022-10-28T00:43:13.747Z,98892.00
2022-10-28T00:43:22.364Z,98896.00
2022-10-28T00:43:33.729Z,98894.00
2022-10-28T00:43:42.230Z,98896.00
2022-10-28T00:43:53.713Z,98898.00
2022-10-28T00:44:02.258Z,98894.00
2022-10-28T00:44:12.266Z,98898.00
2022-10-28T00:44:23.682Z,98900.00
2022-10-28T00:44:33.224Z,98898.00
2022-10-28T00:44:42.273Z,98900.00
2022-10-28T00:44:52.243Z,98900.00
2022-10-28T00:45:03.701Z,98898.00
2022-10-28T00:45:13.179Z,98902.00
2022-10-28T00:45:22.269Z,98902.00
2022-10-28T00:45:33.681Z,98898.00
2022-10-28T00:45:42.224Z,98898.00
2022-10-28T00:45:52.253Z,98902.00
2022-10-28T00:46:02.232Z,98904.00
2022-10-28T00:46:13.672Z,98900.00
2022-10-28T00:46:23.706Z,98900.00
2022-10-28T00:46:33.695Z,98900.00
2022-10-28T00:46:43.664Z,98902.00
2022-10-28T00:46:52.224Z,98902.00
2022-10-28T00:47:03.726Z,98900.00
2022-10-28T00:47:13.687Z,98900.00
2022-10-28T00:47:22.223Z,98894.00
2022-10-28T00:47:32.252Z,98896.00
2022-10-28T00:47:43.678Z,98900.00
2022-10-28T00:47:53.452Z,98896.00
2022-10-28T00:48:02.252Z,98898.00
2022-10-28T00:48:13.673Z,98896.00
2022-10-28T00:48:22.183Z,98902.00
2022-10-28T00:48:33.664Z,98900.00
2022-10-28T00:48:42.184Z,98898.00
2022-10-28T00:48:52.213Z,98900.00
2022-10-28T00:49:03.654Z,98898.00
2022-10-28T00:49:13.154Z,98900.00
2022-10-28T00:49:23.643Z,98898.00
2022-10-28T00:49:32.536Z,98898.00
2022-10-28T00:49:43.622Z,98900.00
2022-10-28T00:49:53.653Z,98898.00
2022-10-28T00:50:02.542Z,98900.00
2022-10-28T00:50:13.613Z,98898.00
2022-10-28T00:50:22.603Z,98894.00
2022-10-28T00:50:32.646Z,98898.00
2022-10-28T00:50:43.613Z,98894.00
2022-10-28T00:50:52.181Z,98894.00
2022-10-28T00:51:03.633Z,98894.00
2022-10-28T00:51:12.683Z,98892.00
2022-10-28T00:51:23.615Z,98896.00
2022-10-28T00:51:32.175Z,98898.00
2022-10-28T00:51:43.627Z,98894.00
2022-10-28T00:51:53.651Z,98892.00
2022-10-28T00:52:02.654Z,98892.00
2022-10-28T00:52:12.174Z,98892.00
2022-10-28T00:52:22.724Z,98892.00
2022-10-28T00:52:33.627Z,98894.00
2022-10-28T00:52:43.629Z,98894.00
2022-10-28T00:52:53.634Z,98894.00
2022-10-28T00:53:03.191Z,98894.00
2022-10-28T00:53:13.635Z,98890.00
2022-10-28T00:53:23.623Z,98892.00
2022-10-28T00:53:32.173Z,98892.00
2022-10-28T00:53:43.613Z,98892.00
2022-10-28T00:53:53.141Z,98894.00
2022-10-28T00:54:02.877Z,98892.00
2022-10-28T00:54:13.615Z,98894.00
2022-10-28T00:54:22.165Z,98894.00
2022-10-28T00:54:32.165Z,98894.00
2022-10-28T00:54:43.064Z,98892.00
2022-10-28T00:54:52.834Z,98892.00
2022-10-28T00:55:03.094Z,98894.00
2022-10-28T00:55:12.143Z,98892.00
2022-10-28T00:55:22.155Z,98898.00
2022-10-28T00:55:32.153Z,98892.00
2022-10-28T00:55:43.135Z,98896.00
2022-10-28T00:55:53.596Z,98894.00
2022-10-28T00:56:03.598Z,98894.00
2022-10-28T00:56:12.245Z,98894.00
2022-10-28T00:56:23.666Z,98896.00
2022-10-28T00:56:33.596Z,98896.00
2022-10-28T00:56:43.595Z,98892.00
2022-10-28T00:56:53.585Z,98896.00
2022-10-28T00:57:03.633Z,98894.00
2022-10-28T00:57:13.582Z,98898.00
2022-10-28T00:57:23.586Z,98898.00
2022-10-28T00:57:33.046Z,98896.00
2022-10-28T00:57:42.165Z,98894.00
2022-10-28T00:57:53.782Z,98894.00
2022-10-28T00:58:03.590Z,98896.00
2022-10-28T00:58:12.146Z,98896.00
2022-10-28T00:58:22.995Z,98900.00
2022-10-28T00:58:32.299Z,98896.00
2022-10-28T00:58:43.566Z,98900.00
2022-10-28T00:58:53.136Z,98896.00
2022-10-28T00:59:03.596Z,98892.00
2022-10-28T00:59:12.247Z,98894.00
2022-10-28T00:59:23.575Z,98900.00
2022-10-28T00:59:32.118Z,98894.00
2022-10-28T00:59:42.126Z,98894.00
2022-10-28T00:59:52.157Z,98900.00
2022-10-28T01:00:02.207Z,98890.00
2022-10-28T01:00:12.124Z,98894.00
2022-10-28T01:00:23.579Z,98896.00
2022-10-28T01:00:33.567Z,98896.00
2022-10-28T01:00:43.324Z,98896.00
2022-10-28T01:00:52.120Z,98894.00
2022-10-28T01:01:02.144Z,98894.00
2022-10-28T01:01:13.636Z,98896.00
2022-10-28T01:01:22.217Z,98894.00
2022-10-28T01:01:32.195Z,98898.00
2022-10-28T01:01:42.193Z,98894.00
2022-10-28T01:01:53.656Z,98894.00
2022-10-28T01:02:02.277Z,98898.00
2022-10-28T01:02:12.208Z,98894.00
2022-10-28T01:02:22.202Z,98896.00
2022-10-28T01:02:33.555Z,98898.00
2022-10-28T01:02:42.168Z,98898.00
2022-10-28T01:02:53.556Z,98900.00
2022-10-28T01:03:03.537Z,98894.00
2022-10-28T01:03:13.568Z,98896.00
2022-10-28T01:03:23.071Z,98898.00
2022-10-28T01:03:33.548Z,98898.00
2022-10-28T01:03:42.108Z,98900.00
2022-10-28T01:03:53.559Z,98900.00
2022-10-28T01:04:02.449Z,98898.00
2022-10-28T01:04:12.917Z,98898.00
2022-10-28T01:04:23.547Z,98898.00
2022-10-28T01:04:32.094Z,98898.00
2022-10-28T01:04:43.559Z,98898.00
2022-10-28T01:04:53.526Z,98898.00
2022-10-28T01:05:02.105Z,98900.00
2022-10-28T01:05:12.164Z,98902.00
2022-10-28T01:05:22.095Z,98904.00
2022-10-28T01:05:33.572Z,98900.00
2022-10-28T01:05:43.547Z,98898.00
2022-10-28T01:05:53.539Z,98898.00
2022-10-28T01:06:02.289Z,98904.00
2022-10-28T01:06:13.525Z,98898.00
2022-10-28T01:06:22.469Z,98902.00
2022-10-28T01:06:33.510Z,98900.00
2022-10-28T01:06:42.069Z,98898.00
2022-10-28T01:06:53.530Z,98900.00
2022-10-28T01:07:02.650Z,98900.00
2022-10-28T01:07:12.696Z,98900.00
2022-10-28T01:07:22.742Z,98898.00
2022-10-28T01:07:32.089Z,98900.00
2022-10-28T01:07:43.531Z,98902.00
2022-10-28T01:07:52.369Z,98900.00
2022-10-28T01:08:02.096Z,98896.00
2022-10-28T01:08:13.533Z,98896.00
2022-10-28T01:08:22.729Z,98898.00
2022-10-28T01:08:32.759Z,98896.00
2022-10-28T01:08:42.179Z,98896.00
2022-10-28T01:08:54.976Z,98896.00
2022-10-28T01:09:03.540Z,98898.00
2022-10-28T01:09:12.835Z,98894.00
2022-10-28T01:09:22.827Z,98896.00
2022-10-28T01:09:32.780Z,98896.00
2022-10-28T01:09:42.813Z,98894.00
2022-10-28T01:09:52.848Z,98896.00
2022-10-28T01:10:02.778Z,98894.00
2022-10-28T01:10:13.490Z,98894.00
2022-10-28T01:10:22.231Z,98894.00
2022-10-28T01:10:32.880Z,98896.00
2022-10-28T01:10:42.030Z,98900.00
2022-10-28T01:10:52.061Z,98898.00
2022-10-28T01:11:02.080Z,98896.00
2022-10-28T01:11:12.053Z,98896.00
2022-10-28T01:11:22.851Z,98896.00
2022-10-28T01:11:33.497Z,98896.00
2022-10-28T01:11:42.063Z,98892.00
2022-10-28T01:11:52.958Z,98896.00
2022-10-28T01:12:03.492Z,98892.00
2022-10-28T01:12:13.547Z,98890.00
2022-10-28T01:12:22.900Z,98894.00
2022-10-28T01:12:32.111Z,98890.00
2022-10-28T01:12:43.481Z,98890.00
2022-10-28T01:12:53.204Z,98890.00
2022-10-28T01:13:02.041Z,98890.00
2022-10-28T01:13:13.511Z,98890.00
2022-10-28T01:13:22.051Z,98888.00
2022-10-28T01:13:32.011Z,98888.00
2022-10-28T01:13:43.521Z,98888.00
2022-10-28T01:14:30.390Z,98886.00
2022-10-28T01:14:40.080Z,98886.00
2022-10-28T01:14:49.402Z,98885.00
2022-10-28T01:15:00.873Z,98888.00
2022-10-28T01:15:10.322Z,98888.00
2022-10-28T01:15:19.430Z,98888.00
2022-10-28T01:15:30.874Z,98886.00
2022-10-28T01:15:40.882Z,98888.00
2022-10-28T01:15:50.860Z,98885.00
2022-10-28T01:16:00.862Z,98883.00
2022-10-28T01:16:10.873Z,98885.00
2022-10-28T01:16:20.862Z,98885.00
2022-10-28T01:16:30.870Z,98881.00
2022-10-28T01:16:40.863Z,98883.00
2022-10-28T01:16:50.353Z,98883.00
2022-10-28T01:17:00.874Z,98883.00
2022-10-28T01:17:10.864Z,98883.00
2022-10-28T01:17:20.372Z,98881.00
2022-10-28T01:17:29.443Z,98883.00
2022-10-28T01:17:40.846Z,98881.00
2022-10-28T01:17:50.850Z,98879.00
2022-10-28T01:17:59.444Z,98881.00
2022-10-28T01:18:09.401Z,98881.00
2022-10-28T01:18:20.867Z,98879.00
2022-10-28T01:18:30.852Z,98879.00
2022-10-28T01:18:39.484Z,98877.00
2022-10-28T01:18:49.514Z,98883.00
2022-10-28T01:18:59.384Z,98881.00
2022-10-28T01:19:10.195Z,98875.00
2022-10-28T01:19:20.842Z,98877.00
2022-10-28T01:19:30.831Z,98877.00
2022-10-28T01:19:40.853Z,98877.00
2022-10-28T01:19:49.383Z,98883.00
2022-10-28T01:19:59.384Z,98881.00
2022-10-28T01:20:10.842Z,98879.00
2022-10-28T01:20:20.848Z,98877.00
2022-10-28T01:20:29.381Z,98881.00
2022-10-28T01:20:42.396Z,98879.00
2022-10-28T01:20:50.858Z,98879.00
2022-10-28T01:21:00.827Z,98877.00
2022-10-28T01:21:10.836Z,98875.00
2022-10-28T01:21:20.825Z,98873.00
2022-10-28T01:21:30.814Z,98875.00
2022-10-28T01:21:40.817Z,98877.00
2022-10-28T01:21:50.804Z,98877.00
2022-10-28T01:22:00.175Z,98877.00
2022-10-28T01:22:10.837Z,98877.00
2022-10-28T01:22:19.417Z,98877.00
2022-10-28T01:22:40.375Z,98875.00
2022-10-28T01:22:51.053Z,98877.00
2022-10-28T01:23:00.804Z,98875.00
2022-10-28T01:23:10.327Z,98875.00
2022-10-28T01:23:19.375Z,98875.00
2022-10-28T01:23:30.803Z,98875.00
2022-10-28T01:23:39.346Z,98873.00
2022-10-28T01:23:50.819Z,98873.00
2022-10-28T01:23:59.383Z,98875.00
2022-10-28T01:24:10.229Z,98875.00
2022-10-28T01:24:20.820Z,98873.00
2022-10-28T01:24:30.798Z,98875.00
2022-10-28T01:24:39.370Z,98871.00
2022-10-28T01:24:49.394Z,98871.00
2022-10-28T01:24:59.367Z,98875.00
2022-10-28T01:25:09.358Z,98877.00
2022-10-28T01:25:20.812Z,98877.00
2022-10-28T01:25:29.499Z,98875.00
2022-10-28T01:25:39.538Z,98875.00
2022-10-28T01:25:49.565Z,98875.00
2022-10-28T01:25:59.596Z,98879.00
2022-10-28T01:26:09.325Z,98875.00
2022-10-28T01:26:19.575Z,98871.00
2022-10-28T01:26:29.325Z,98873.00
2022-10-28T01:26:39.645Z,98875.00
2022-10-28T01:26:49.576Z,98873.00
2022-10-28T01:26:59.617Z,98873.00
2022-10-28T01:27:09.647Z,98873.00
2022-10-28T01:27:19.677Z,98873.00
2022-10-28T01:27:30.164Z,98873.00
2022-10-28T01:27:39.649Z,98873.00
2022-10-28T01:27:49.677Z,98873.00
2022-10-28T01:27:59.636Z,98873.00
2022-10-28T01:28:09.657Z,98871.00
2022-10-28T01:28:19.338Z,98873.00
2022-10-28T01:28:29.618Z,98873.00
2022-10-28T01:28:39.305Z,98875.00
2022-10-28T01:28:49.696Z,98877.00
2022-10-28T01:29:00.769Z,98875.00
2022-10-28T01:29:09.660Z,98873.00
2022-10-28T01:29:20.755Z,98873.00
2022-10-28T01:29:30.766Z,98875.00
2022-10-28T01:29:39.667Z,98873.00
2022-10-28T01:29:49.609Z,98873.00
2022-10-28T01:29:59.737Z,98873.00
2022-10-28T01:30:09.290Z,98871.00
2022-10-28T01:30:19.329Z,98873.00
2022-10-28T01:30:30.130Z,98871.00
2022-10-28T01:30:39.675Z,98873.00
2022-10-28T01:30:50.730Z,98873.00
2022-10-28T01:31:00.094Z,98875.00
2022-10-28T01:31:09.317Z,98873.00
2022-10-28T01:31:20.760Z,98871.00
2022-10-28T01:31:29.297Z,98871.00
2022-10-28T01:31:39.299Z,98875.00
2022-10-28T01:31:50.748Z,98875.00
2022-10-28T01:32:00.746Z,98875.00
2022-10-28T01:32:09.298Z,98875.00
2022-10-28T01:32:19.330Z,98875.00
2022-10-28T01:32:30.198Z,98875.00
2022-10-28T01:32:39.319Z,98873.00
2022-10-28T01:32:49.288Z,98873.00
2022-10-28T01:32:59.309Z,98875.00
2022-10-28T01:33:09.310Z,98873.00
2022-10-28T01:33:20.750Z,98873.00
2022-10-28T01:33:30.748Z,98875.00
2022-10-28T01:33:40.748Z,98873.00
2022-10-28T01:33:49.434Z,98869.00
2022-10-28T01:34:00.729Z,98871.00
2022-10-28T01:34:10.740Z,98869.00
2022-10-28T01:34:20.737Z,98867.00
2022-10-28T01:34:29.279Z,98869.00
2022-10-28T01:34:40.242Z,98869.00
2022-10-28T01:34:49.528Z,98871.00
2022-10-28T01:35:00.211Z,98869.00
2022-10-28T01:35:10.739Z,98867.00
2022-10-28T01:35:20.844Z,98869.00
2022-10-28T01:35:40.729Z,98865.00
2022-10-28T01:35:50.220Z,98867.00
2022-10-28T01:36:00.717Z,98867.00
2022-10-28T01:36:09.611Z,98869.00
2022-10-28T01:36:19.260Z,98867.00
2022-10-28T01:36:29.260Z,98869.00
2022-10-28T01:36:40.050Z,98869.00
2022-10-28T01:36:49.272Z,98867.00
2022-10-28T01:36:59.584Z,98869.00
2022-10-28T01:37:09.243Z,98869.00
2022-10-28T01:37:19.289Z,98869.00
2022-10-28T01:37:29.270Z,98869.00
2022-10-28T01:37:40.718Z,98867.00
2022-10-28T01:37:50.922Z,98867.00
2022-10-28T01:37:59.430Z,98871.00
2022-10-28T01:38:10.707Z,98869.00
2022-10-28T01:38:20.724Z,98867.00
2022-10-28T01:38:29.701Z,98867.00
2022-10-28T01:38:39.241Z,98869.00
2022-10-28T01:38:49.260Z,98869.00
2022-10-28T01:38:59.341Z,98865.00
2022-10-28T01:39:10.069Z,98871.00
2022-10-28T01:39:20.722Z,98871.00
2022-10-28T01:39:29.251Z,98869.00
2022-10-28T01:39:39.261Z,98869.00
2022-10-28T01:39:49.240Z,98867.00
2022-10-28T01:40:00.241Z,98869.00
2022-10-28T01:40:10.688Z,98869.00
2022-10-28T01:40:19.242Z,98867.00
2022-10-28T01:40:29.243Z,98865.00
2022-10-28T01:40:40.702Z,98867.00
2022-10-28T01:40:50.700Z,98867.00
2022-10-28T01:41:00.726Z,98865.00
2022-10-28T01:41:10.692Z,98867.00
2022-10-28T01:41:20.690Z,98865.00
2022-10-28T01:41:29.233Z,98865.00
2022-10-28T01:41:40.700Z,98869.00
2022-10-28T01:41:50.681Z,98865.00
2022-10-28T01:41:59.232Z,98865.00
2022-10-28T01:42:10.688Z,98863.00
2022-10-28T01:42:20.023Z,98861.00
2022-10-28T01:42:29.231Z,98861.00
2022-10-28T01:42:39.242Z,98859.00
2022-10-28T01:42:50.679Z,98863.00
2022-10-28T01:43:00.680Z,98865.00
2022-10-28T01:43:10.698Z,98861.00
2022-10-28T01:43:19.212Z,98857.00
2022-10-28T01:43:29.242Z,98861.00
2022-10-28T01:43:40.682Z,98857.00
2022-10-28T01:43:49.213Z,98857.00
2022-10-28T01:43:59.223Z,98859.00
2022-10-28T01:44:10.686Z,98859.00
2022-10-28T01:44:19.222Z,98859.00
2022-10-28T01:44:30.682Z,98859.00
2022-10-28T01:44:40.052Z,98859.00
2022-10-28T01:44:50.659Z,98857.00
2022-10-28T01:44:59.202Z,98859.00
2022-10-28T01:45:10.671Z,98857.00
2022-10-28T01:45:20.663Z,98861.00
2022-10-28T01:45:29.211Z,98857.00
2022-10-28T01:45:39.203Z,98857.00
2022-10-28T01:45:49.220Z,98857.00
2022-10-28T01:46:00.663Z,98859.00
2022-10-28T01:46:09.200Z,98859.00
2022-10-28T01:46:20.152Z,98859.00
2022-10-28T01:46:30.654Z,98857.00
2022-10-28T01:46:40.633Z,98857.00
2022-10-28T01:46:49.189Z,98857.00
2022-10-28T01:47:00.654Z,98859.00
2022-10-28T01:47:10.153Z,98859.00
2022-10-28T01:47:19.243Z,98857.00
2022-10-28T01:47:30.672Z,98859.00
2022-10-28T01:47:40.672Z,98857.00
2022-10-28T01:47:50.902Z,98859.00
2022-10-28T01:48:00.133Z,98857.00
2022-10-28T01:48:10.643Z,98853.00
2022-10-28T01:48:20.633Z,98857.00
2022-10-28T01:48:29.250Z,98857.00
2022-10-28T01:48:40.668Z,98855.00
2022-10-28T01:48:49.202Z,98855.00
2022-10-28T01:48:59.183Z,98855.00
2022-10-28T01:49:10.644Z,98855.00
2022-10-28T01:49:20.643Z,98853.00
2022-10-28T01:49:29.183Z,98853.00
2022-10-28T01:49:39.169Z,98855.00
2022-10-28T01:49:50.615Z,98853.00
2022-10-28T01:49:59.763Z,98859.00
2022-10-28T01:50:09.187Z,98857.00
2022-10-28T01:50:20.063Z,98855.00
2022-10-28T01:50:29.194Z,98855.00
2022-10-28T01:50:39.194Z,98855.00
2022-10-28T01:50:50.640Z,98853.00
2022-10-28T01:51:00.624Z,98855.00
2022-10-28T01:51:10.613Z,98853.00
2022-10-28T01:51:20.623Z,98855.00
2022-10-28T01:51:30.623Z,98849.00
2022-10-28T01:51:40.634Z,98847.00
2022-10-28T01:51:49.845Z,98851.00
2022-10-28T01:52:00.613Z,98851.00
2022-10-28T01:52:10.614Z,98849.00
2022-10-28T01:52:19.174Z,98853.00
2022-10-28T01:52:30.615Z,98857.00
2022-10-28T01:52:39.214Z,98853.00
2022-10-28T01:52:50.943Z,98851.00
2022-10-28T01:52:59.176Z,98855.00
2022-10-28T01:53:09.186Z,98851.00
2022-10-28T01:53:19.175Z,98851.00
2022-10-28T01:53:29.975Z,98853.00
2022-10-28T01:53:39.164Z,98849.00
2022-10-28T01:53:49.159Z,98853.00
2022-10-28T01:53:59.386Z,98853.00
2022-10-28T01:54:09.209Z,98851.00
2022-10-28T01:54:19.252Z,98853.00
2022-10-28T01:54:29.895Z,98851.00
2022-10-28T01:54:39.517Z,98853.00
2022-10-28T01:54:49.346Z,98853.00
2022-10-28T01:55:00.005Z,98849.00
2022-10-28T01:55:09.123Z,98851.00
2022-10-28T01:55:19.356Z,98853.00
2022-10-28T01:55:30.005Z,98853.00
2022-10-28T01:55:39.435Z,98851.00
2022-10-28T01:55:49.977Z,98851.00
2022-10-28T01:55:59.126Z,98851.00
2022-10-28T01:56:09.537Z,98853.00
2022-10-28T01:56:19.984Z,98849.00
2022-10-28T01:56:29.107Z,98849.00
2022-10-28T01:56:39.106Z,98849.00
2022-10-28T01:56:49.175Z,98849.00
2022-10-28T01:57:00.558Z,98849.00
2022-10-28T01:57:10.585Z,98847.00
2022-10-28T01:57:20.576Z,98851.00
2022-10-28T01:57:30.566Z,98851.00
2022-10-28T01:57:40.585Z,98849.00
2022-10-28T01:57:50.575Z,98851.00
2022-10-28T01:57:59.148Z,98849.00
2022-10-28T01:58:10.606Z,98851.00
2022-10-28T01:58:20.576Z,98849.00
2022-10-28T01:58:29.116Z,98847.00